Time,TemperatureF,DewpointF,PressureIn,WindDirection,WindDirectionDegrees,WindSpeedMPH,WindSpeedGustMPH,Humidity,HourlyPrecipIn,Conditions,Clouds,dailyrainin,SoftwareType,DateUTC
2013-10-09 00:09:00,40.2,39.0,30.41,East,96,0.0,-999.0,95,-99.99,,,0.00,weatherlink.com 1.10,2013-10-09 04:09:00,
2013-10-09 00:24:00,39.3,38.0,30.41,East,96,0.0,-999.0,94,-99.99,,,0.00,weatherlink.com 1.10,2013-10-09 04:24:00,
2013-10-09 00:39:00,40.0,39.0,30.42,East,96,1.0,-999.0,95,-99.99,,,0.00,weatherlink.com 1.10,2013-10-09 04:39:00,
2013-10-09 00:54:00,39.1,37.0,30.41,East,96,1.0,-999.0,93,-99.99,,,0.00,weatherlink.com 1.10,2013-10-09 04:54:00,
2013-10-09 01:09:00,38.6,37.0,30.42,SE,125,2.0,-999.0,95,-99.99,,,0.00,weatherlink.com 1.10,2013-10-09 05:09:00,
2013-10-09 01:24:00,39.6,38.0,30.42,SE,127,0.0,-999.0,95,-99.99,,,0.00,weatherlink.com 1.10,2013-10-09 05:24:00,
2013-10-09 01:39:00,39.3,38.0,30.43,SE,127,0.0,-999.0,95,-99.99,,,0.00,weatherlink.com 1.10,2013-10-09 05:39:00,
2013-10-09 01:54:00,38.8,37.0,30.43,SE,127,0.0,-999.0,94,-99.99,,,0.00,weatherlink.com 1.10,2013-10-09 05:54:00,
2013-10-09 02:09:00,38.2,37.0,30.43,SE,127,0.0,-999.0,94,-99.99,,,0.01,weatherlink.com 1.10,2013-10-09 06:09:00,
2013-10-09 02:24:00,37.9,37.0,30.43,SE,127,0.0,-999.0,95,-99.99,,,0.01,weatherlink.com 1.10,2013-10-09 06:24:00,
2013-10-09 02:39:00,38.9,38.0,30.43,SE,126,2.0,-999.0,96,-99.99,,,0.01,weatherlink.com 1.10,2013-10-09 06:39:00,
2013-10-09 03:10:00,37.2,36.0,30.43,SE,126,0.0,-999.0,94,-99.99,,,0.01,weatherlink.com 1.10,2013-10-09 07:10:00,
2013-10-09 03:25:00,37.0,36.0,30.43,SE,126,0.0,-999.0,95,-99.99,,,0.01,weatherlink.com 1.10,2013-10-09 07:25:00,
2013-10-09 03:40:00,36.7,35.0,30.43,SE,126,1.0,-999.0,95,-99.99,,,0.01,weatherlink.com 1.10,2013-10-09 07:40:00,
2013-10-09 03:55:00,36.7,35.0,30.44,SE,127,0.0,-999.0,95,-99.99,,,0.01,weatherlink.com 1.10,2013-10-09 07:55:00,
2013-10-09 04:10:00,35.7,34.0,30.44,SE,126,0.0,-999.0,95,-99.99,,,0.01,weatherlink.com 1.10,2013-10-09 08:10:00,
2013-10-09 04:25:00,36.0,35.0,30.44,SE,126,0.0,-999.0,96,-99.99,,,0.01,weatherlink.com 1.10,2013-10-09 08:25:00,
2013-10-09 04:40:00,36.0,35.0,30.45,SE,126,0.0,-999.0,95,-99.99,,,0.01,weatherlink.com 1.10,2013-10-09 08:40:00,
2013-10-09 04:55:00,35.5,34.0,30.46,SE,126,0.0,-999.0,95,-99.99,,,0.01,weatherlink.com 1.10,2013-10-09 08:55:00,
2013-10-09 05:10:00,35.5,34.0,30.45,SE,126,0.0,-999.0,95,-99.99,,,0.01,weatherlink.com 1.10,2013-10-09 09:10:00,
2013-10-09 05:25:00,35.0,34.0,30.45,SE,126,0.0,-999.0,95,-99.99,,,0.01,weatherlink.com 1.10,2013-10-09 09:25:00,
2013-10-09 05:40:00,35.2,34.0,30.45,SE,126,0.0,-999.0,96,-99.99,,,0.01,weatherlink.com 1.10,2013-10-09 09:40:00,
2013-10-09 05:55:00,34.8,34.0,30.46,SE,127,2.0,-999.0,96,-99.99,,,0.01,weatherlink.com 1.10,2013-10-09 09:55:00,
2013-10-09 06:10:00,35.0,34.0,30.46,SE,126,0.0,-999.0,96,-99.99,,,0.01,weatherlink.com 1.10,2013-10-09 10:10:00,
2013-10-09 06:25:00,35.0,34.0,30.47,SE,126,0.0,-999.0,96,-99.99,,,0.02,weatherlink.com 1.10,2013-10-09 10:25:00,
2013-10-09 06:40:00,35.1,34.0,30.46,SE,126,0.0,-999.0,96,-99.99,,,0.02,weatherlink.com 1.10,2013-10-09 10:40:00,
2013-10-09 06:55:00,35.9,35.0,30.47,SE,126,0.0,-999.0,96,-99.99,,,0.02,weatherlink.com 1.10,2013-10-09 10:55:00,
2013-10-09 07:10:00,35.4,34.0,30.47,SE,126,0.0,-999.0,96,-99.99,,,0.02,weatherlink.com 1.10,2013-10-09 11:10:00,
2013-10-09 07:25:00,35.1,34.0,30.47,SE,126,0.0,-999.0,96,-99.99,,,0.02,weatherlink.com 1.10,2013-10-09 11:25:00,
2013-10-09 07:40:00,36.2,35.0,30.48,SE,127,0.0,-999.0,96,-99.99,,,0.02,weatherlink.com 1.10,2013-10-09 11:40:00,
2013-10-09 07:55:00,37.6,37.0,30.48,SE,127,0.0,-999.0,96,-99.99,,,0.02,weatherlink.com 1.10,2013-10-09 11:55:00,
2013-10-09 08:10:00,38.8,38.0,30.48,SE,127,0.0,-999.0,96,-99.99,,,0.02,weatherlink.com 1.10,2013-10-09 12:10:00,
2013-10-09 08:25:00,41.2,40.0,30.48,SE,127,0.0,-999.0,96,-99.99,,,0.02,weatherlink.com 1.10,2013-10-09 12:25:00,
2013-10-09 08:40:00,42.3,41.0,30.48,SE,127,1.0,-999.0,96,-99.99,,,0.02,weatherlink.com 1.10,2013-10-09 12:40:00,
2013-10-09 08:55:00,-999.0,-99.9,30.46,North,-999,-999.0,-999.0,-999,-99.99,,,0.02,weatherlink.com 1.10,2013-10-09 12:55:00,
2013-10-09 09:10:00,-999.0,-99.9,30.46,North,-999,-999.0,-999.0,-999,-99.99,,,0.02,weatherlink.com 1.10,2013-10-09 13:10:00,
2013-10-09 09:25:00,-999.0,-99.9,30.47,North,-999,-999.0,-999.0,-999,-99.99,,,0.02,weatherlink.com 1.10,2013-10-09 13:25:00,
2013-10-09 09:40:00,-999.0,-99.9,30.47,North,-999,-999.0,-999.0,-999,-99.99,,,0.02,weatherlink.com 1.10,2013-10-09 13:40:00,
2013-10-09 09:55:00,-999.0,-99.9,30.47,North,-999,-999.0,-999.0,-999,-99.99,,,0.02,weatherlink.com 1.10,2013-10-09 13:55:00,
2013-10-09 10:10:00,-999.0,-99.9,30.48,North,-999,-999.0,-999.0,-999,-99.99,,,0.02,weatherlink.com 1.10,2013-10-09 14:10:00,
2013-10-09 10:25:00,-999.0,-99.9,30.48,North,-999,-999.0,-999.0,-999,-99.99,,,0.02,weatherlink.com 1.10,2013-10-09 14:25:00,
2013-10-09 10:41:00,-999.0,-99.9,30.47,North,-999,-999.0,-999.0,-999,-99.99,,,0.02,weatherlink.com 1.10,2013-10-09 14:41:00,
2013-10-09 10:56:00,-999.0,-99.9,30.48,North,-999,-999.0,-999.0,-999,-99.99,,,0.02,weatherlink.com 1.10,2013-10-09 14:56:00,
2013-10-09 11:11:00,-999.0,-99.9,30.48,North,-999,-999.0,-999.0,-999,-99.99,,,0.02,weatherlink.com 1.10,2013-10-09 15:11:00,
2013-10-09 11:26:00,-999.0,-99.9,30.48,North,-999,-999.0,-999.0,-999,-99.99,,,0.02,weatherlink.com 1.10,2013-10-09 15:26:00,
2013-10-09 11:41:00,59.0,-99.9,30.47,West,262,6.0,-999.0,-999,-99.99,,,0.02,weatherlink.com 1.10,2013-10-09 15:41:00,
2013-10-09 11:56:00,-999.0,-99.9,30.48,North,-999,-999.0,-999.0,-999,-99.99,,,0.02,weatherlink.com 1.10,2013-10-09 15:56:00,
2013-10-09 12:11:00,-999.0,-99.9,30.48,North,-999,-999.0,-999.0,-999,-99.99,,,0.02,weatherlink.com 1.10,2013-10-09 16:11:00,
2013-10-09 12:26:00,61.5,43.0,30.46,WSW,240,6.0,-999.0,50,-99.99,,,0.02,weatherlink.com 1.10,2013-10-09 16:26:00,
2013-10-09 12:41:00,-999.0,-99.9,30.46,North,-999,-999.0,-999.0,-999,-99.99,,,0.02,weatherlink.com 1.10,2013-10-09 16:41:00,
2013-10-09 12:56:00,-999.0,-99.9,30.46,North,-999,-999.0,-999.0,-999,-99.99,,,0.02,weatherlink.com 1.10,2013-10-09 16:56:00,
2013-10-09 13:11:00,-999.0,-99.9,30.44,North,-999,-999.0,-999.0,-999,-99.99,,,0.02,weatherlink.com 1.10,2013-10-09 17:11:00,
2013-10-09 13:26:00,63.1,42.0,30.44,West,264,1.0,-999.0,46,-99.99,,,0.02,weatherlink.com 1.10,2013-10-09 17:26:00,
2013-10-09 13:41:00,-999.0,-99.9,30.43,North,-999,-999.0,-999.0,-999,-99.99,,,0.02,weatherlink.com 1.10,2013-10-09 17:41:00,
2013-10-09 13:56:00,-999.0,-99.9,30.42,North,-999,-999.0,-999.0,-999,-99.99,,,0.02,weatherlink.com 1.10,2013-10-09 17:56:00,
2013-10-09 14:12:00,-999.0,-99.9,30.41,North,-999,-999.0,-999.0,-999,-99.99,,,0.02,weatherlink.com 1.10,2013-10-09 18:12:00,
2013-10-09 14:27:00,-999.0,-99.9,30.41,North,-999,-999.0,-999.0,-999,-99.99,,,0.02,weatherlink.com 1.10,2013-10-09 18:27:00,
2013-10-09 14:42:00,-999.0,-99.9,30.41,North,-999,-999.0,-999.0,-999,-99.99,,,0.02,weatherlink.com 1.10,2013-10-09 18:42:00,
2013-10-09 14:57:00,-999.0,-99.9,30.41,North,-999,-999.0,-999.0,-999,-99.99,,,0.02,weatherlink.com 1.10,2013-10-09 18:57:00,
2013-10-09 15:12:00,-999.0,-99.9,30.41,North,-999,-999.0,-999.0,-999,-99.99,,,0.02,weatherlink.com 1.10,2013-10-09 19:12:00,
2013-10-09 15:27:00,-999.0,-99.9,30.40,North,-999,-999.0,-999.0,-999,-99.99,,,0.02,weatherlink.com 1.10,2013-10-09 19:27:00,
2013-10-09 15:42:00,-999.0,-99.9,30.40,North,-999,-999.0,-999.0,-999,-99.99,,,0.02,weatherlink.com 1.10,2013-10-09 19:42:00,
2013-10-09 15:57:00,-999.0,-99.9,30.40,North,-999,-999.0,-999.0,-999,-99.99,,,0.02,weatherlink.com 1.10,2013-10-09 19:57:00,
2013-10-09 16:12:00,-999.0,-99.9,30.39,North,-999,-999.0,-999.0,-999,-99.99,,,0.02,weatherlink.com 1.10,2013-10-09 20:12:00,
2013-10-09 16:27:00,-999.0,-99.9,30.39,North,-999,-999.0,-999.0,-999,-99.99,,,0.02,weatherlink.com 1.10,2013-10-09 20:27:00,
2013-10-09 16:42:00,-999.0,-99.9,30.39,North,-999,-999.0,-999.0,-999,-99.99,,,0.02,weatherlink.com 1.10,2013-10-09 20:42:00,
2013-10-09 16:57:00,-999.0,-99.9,30.39,North,-999,-999.0,-999.0,-999,-99.99,,,0.02,weatherlink.com 1.10,2013-10-09 20:57:00,
2013-10-09 17:12:00,-999.0,-99.9,30.39,North,-999,-999.0,-999.0,-999,-99.99,,,0.02,weatherlink.com 1.10,2013-10-09 21:12:00,
2013-10-09 17:27:00,-999.0,-99.9,30.38,North,-999,-999.0,-999.0,-999,-99.99,,,0.02,weatherlink.com 1.10,2013-10-09 21:27:00,
2013-10-09 17:43:00,-999.0,-99.9,30.38,North,-999,-999.0,-999.0,-999,-99.99,,,0.02,weatherlink.com 1.10,2013-10-09 21:43:00,
2013-10-09 17:58:00,-999.0,-99.9,30.37,North,-999,-999.0,-999.0,-999,-99.99,,,0.02,weatherlink.com 1.10,2013-10-09 21:58:00,
2013-10-09 18:13:00,-999.0,-99.9,30.37,North,-999,-999.0,-999.0,-999,-99.99,,,0.02,weatherlink.com 1.10,2013-10-09 22:13:00,
2013-10-09 18:28:00,-999.0,-99.9,30.38,North,-999,-999.0,-999.0,-999,-99.99,,,0.02,weatherlink.com 1.10,2013-10-09 22:28:00,
2013-10-09 18:43:00,-999.0,-99.9,30.38,North,-999,-999.0,-999.0,-999,-99.99,,,0.02,weatherlink.com 1.10,2013-10-09 22:43:00,
2013-10-09 18:58:00,-999.0,-99.9,30.37,North,-999,-999.0,-999.0,-999,-99.99,,,0.02,weatherlink.com 1.10,2013-10-09 22:58:00,
2013-10-09 19:13:00,-999.0,-99.9,30.37,North,-999,-999.0,-999.0,-999,-99.99,,,0.02,weatherlink.com 1.10,2013-10-09 23:13:00,
2013-10-09 19:28:00,-999.0,-99.9,30.38,North,-999,-999.0,-999.0,-999,-99.99,,,0.02,weatherlink.com 1.10,2013-10-09 23:28:00,
2013-10-09 19:43:00,48.2,43.0,30.38,WSW,250,0.0,-999.0,83,-99.99,,,0.02,weatherlink.com 1.10,2013-10-09 23:43:00,
2013-10-09 19:58:00,47.5,43.0,30.37,WSW,250,0.0,-999.0,85,-99.99,,,0.02,weatherlink.com 1.10,2013-10-09 23:58:00,
2013-10-09 20:13:00,47.2,43.0,30.37,SSW,206,3.0,-999.0,85,-99.99,,,0.02,weatherlink.com 1.10,2013-10-10 00:13:00,
2013-10-09 20:28:00,49.3,43.0,30.37,SE,128,5.0,-999.0,80,-99.99,,,0.02,weatherlink.com 1.10,2013-10-10 00:28:00,
2013-10-09 20:43:00,50.4,44.0,30.37,SE,131,2.0,-999.0,78,-99.99,,,0.02,weatherlink.com 1.10,2013-10-10 00:43:00,
2013-10-09 20:58:00,50.1,44.0,30.36,SE,137,5.0,-999.0,79,-99.99,,,0.02,weatherlink.com 1.10,2013-10-10 00:58:00,
2013-10-09 21:13:00,51.2,44.0,30.36,SE,140,3.0,-999.0,75,-99.99,,,0.02,weatherlink.com 1.10,2013-10-10 01:13:00,
2013-10-09 21:28:00,50.9,44.0,30.36,SE,146,9.0,-999.0,76,-99.99,,,0.02,weatherlink.com 1.10,2013-10-10 01:28:00,
2013-10-09 21:43:00,50.9,44.0,30.36,South,184,0.0,-999.0,77,-99.99,,,0.02,weatherlink.com 1.10,2013-10-10 01:43:00,
2013-10-09 21:58:00,-999.0,-99.9,30.36,North,-999,-999.0,-999.0,-999,-99.99,,,0.02,weatherlink.com 1.10,2013-10-10 01:58:00,
2013-10-09 22:13:00,-999.0,-99.9,30.35,North,-999,-999.0,-999.0,-999,-99.99,,,0.02,weatherlink.com 1.10,2013-10-10 02:13:00,
2013-10-09 22:28:00,-999.0,-99.9,30.36,North,-999,-999.0,-999.0,-999,-99.99,,,0.02,weatherlink.com 1.10,2013-10-10 02:28:00,
2013-10-09 22:43:00,-999.0,-99.9,30.35,North,-999,-999.0,-999.0,-999,-99.99,,,0.02,weatherlink.com 1.10,2013-10-10 02:43:00,
2013-10-09 22:58:00,-999.0,-99.9,30.35,North,-999,-999.0,-999.0,-999,-99.99,,,0.02,weatherlink.com 1.10,2013-10-10 02:58:00,
2013-10-09 23:14:00,-999.0,-99.9,30.35,North,-999,-999.0,-999.0,-999,-99.99,,,0.02,weatherlink.com 1.10,2013-10-10 03:14:00,
2013-10-09 23:29:00,-999.0,-99.9,30.35,North,-999,-999.0,-999.0,-999,-99.99,,,0.02,weatherlink.com 1.10,2013-10-10 03:29:00,
2013-10-09 23:44:00,-999.0,-99.9,30.35,North,-999,-999.0,-999.0,-999,-99.99,,,0.02,weatherlink.com 1.10,2013-10-10 03:44:00,
2013-10-09 23:59:00,-999.0,-99.9,30.35,North,-999,-999.0,-999.0,-999,-99.99,,,0.02,weatherlink.com 1.10,2013-10-10 03:59:00,